createdAt,value
2018-04-07T00:00:39.699Z,56.50
2018-04-07T00:05:30.597Z,56.60
2018-04-07T00:10:22.241Z,56.50
2018-04-07T00:15:13.961Z,56.70
2018-04-07T00:20:04.864Z,56.60
2018-04-07T00:24:55.778Z,56.50
2018-04-07T00:29:54.401Z,56.50
2018-04-07T00:34:46.045Z,56.60
2018-04-07T00:39:36.936Z,56.60
2018-04-07T00:44:27.828Z,56.50
2018-04-07T00:49:18.729Z,56.70
2018-04-07T00:54:09.629Z,56.70
2018-04-07T00:59:00.525Z,56.80
2018-04-07T01:03:52.905Z,57.10
2018-04-07T01:08:43.801Z,57.00
2018-04-07T01:13:34.697Z,57.20
2018-04-07T01:18:25.625Z,57.00
2018-04-07T01:23:16.533Z,57.10
2018-04-07T01:28:07.434Z,57.00
2018-04-07T01:32:58.334Z,57.10
2018-04-07T01:37:50.725Z,56.80
2018-04-07T01:42:42.374Z,56.80
2018-04-07T01:47:34.026Z,56.90
2018-04-07T01:52:25.672Z,56.80
2018-04-07T01:57:16.573Z,56.60
2018-04-07T02:02:07.498Z,56.40
2018-04-07T02:06:58.397Z,56.40
2018-04-07T02:11:49.309Z,56.40
2018-04-07T02:16:40.949Z,56.50
2018-04-07T02:21:31.845Z,56.40
2018-04-07T02:26:22.777Z,56.50
2018-04-07T02:31:13.686Z,56.50
2018-04-07T02:36:04.602Z,56.40
2018-04-07T02:40:55.507Z,56.30
2018-04-07T02:45:46.410Z,56.40
2018-04-07T02:50:37.318Z,56.40
2018-04-07T02:55:28.969Z,56.60
2018-04-07T03:00:19.867Z,56.50
2018-04-07T03:05:10.770Z,56.60
2018-04-07T03:10:01.661Z,56.60
2018-04-07T03:14:52.562Z,56.70
2018-04-07T03:19:43.461Z,56.70
2018-04-07T03:24:34.352Z,56.70
2018-04-07T03:29:25.265Z,56.70
2018-04-07T03:34:16.901Z,56.80
2018-04-07T03:39:07.814Z,56.70
2018-04-07T03:43:58.757Z,56.70
2018-04-07T03:48:49.649Z,56.80
2018-04-07T03:53:40.565Z,56.80
2018-04-07T03:58:32.205Z,56.70
2018-04-07T04:03:23.857Z,56.70
2018-04-07T04:08:15.484Z,56.80
2018-04-07T04:13:06.386Z,56.70
2018-04-07T04:17:57.285Z,56.70
2018-04-07T04:22:48.921Z,56.80
2018-04-07T04:27:40.561Z,56.70
2018-04-07T04:32:31.458Z,56.70
2018-04-07T04:37:22.358Z,56.70
2018-04-07T04:42:13.256Z,56.80
2018-04-07T04:47:04.162Z,56.80
2018-04-07T04:51:55.076Z,56.70
2018-04-07T04:56:45.977Z,56.70
2018-04-07T05:01:37.638Z,56.80
2018-04-07T05:06:29.278Z,56.80
2018-04-07T05:11:20.913Z,56.90
2018-04-07T05:16:11.822Z,56.80
2018-04-07T05:21:02.722Z,56.90
2018-04-07T05:25:53.617Z,57.00
2018-04-07T05:30:44.514Z,57.10
2018-04-07T05:35:35.405Z,57.10
2018-04-07T05:40:26.509Z,57.20
2018-04-07T05:45:17.405Z,57.20
2018-04-07T05:50:09.045Z,57.30
2018-04-07T05:55:00.689Z,57.60
2018-04-07T05:59:51.584Z,57.40
2018-04-07T06:04:42.644Z,57.50
2018-04-07T06:09:33.637Z,57.30
2018-04-07T06:14:24.566Z,57.90
2018-04-07T06:19:15.461Z,57.30
2018-04-07T06:24:07.103Z,57.40
2018-04-07T06:28:58.072Z,57.40
2018-04-07T06:33:48.973Z,57.10
2018-04-07T06:38:39.877Z,57.10
2018-04-07T06:43:30.773Z,57.20
2018-04-07T06:48:22.409Z,57.20
2018-04-07T06:53:13.345Z,57.00
2018-04-07T06:58:04.237Z,57.00
2018-04-07T07:02:55.137Z,57.50
2018-04-07T07:07:46.053Z,56.80
2018-04-07T07:12:36.945Z,56.40
2018-04-07T07:17:27.844Z,55.80
2018-04-07T07:22:18.746Z,55.40
2018-04-07T07:27:09.650Z,55.40
2018-04-07T07:32:01.291Z,55.70
2018-04-07T07:36:52.946Z,55.70
2018-04-07T07:41:44.593Z,55.80
2018-04-07T07:46:35.490Z,55.70
2018-04-07T07:51:26.388Z,55.10
2018-04-07T07:56:17.317Z,54.70
2018-04-07T08:01:08.221Z,54.60
2018-04-07T08:05:59.872Z,53.70
2018-04-07T08:10:50.785Z,53.70
2018-04-07T08:15:41.690Z,53.40
2018-04-07T08:20:32.590Z,53.50
2018-04-07T08:25:23.488Z,54.10
2018-04-07T08:30:14.376Z,54.50
2018-04-07T08:35:05.318Z,54.00
2018-04-07T08:39:56.209Z,52.40
2018-04-07T08:44:47.849Z,53.40
2018-04-07T08:54:57.288Z,54.20
2018-04-07T08:59:48.197Z,55.10
2018-04-07T09:04:39.855Z,55.90
2018-04-07T09:09:30.749Z,55.80
2018-04-07T09:14:22.385Z,54.80
2018-04-07T09:19:14.033Z,54.70
2018-04-07T09:24:05.893Z,54.30
2018-04-07T09:28:57.534Z,54.70
2018-04-07T09:33:49.241Z,54.90
2018-04-07T09:38:40.163Z,54.90
2018-04-07T09:43:31.077Z,54.60
2018-04-07T09:48:22.018Z,53.10
2018-04-07T09:53:12.921Z,52.50
2018-04-07T09:58:03.849Z,53.00
2018-04-07T10:03:00.868Z,52.30
2018-04-07T10:07:52.521Z,54.10
2018-04-07T10:12:44.293Z,54.70
2018-04-07T10:17:35.990Z,53.10
2018-04-07T10:22:26.925Z,53.00
2018-04-07T10:27:17.929Z,52.30
2018-04-07T10:32:08.863Z,50.30
2018-04-07T10:36:59.893Z,51.50
2018-04-07T10:41:50.909Z,50.20
2018-04-07T10:46:41.833Z,49.00
2018-04-07T10:51:32.812Z,50.20
2018-04-07T10:56:23.721Z,50.50
2018-04-07T11:01:15.440Z,50.60
2018-04-07T11:06:06.393Z,50.50
2018-04-07T11:10:57.265Z,50.10
2018-04-07T11:15:48.198Z,50.50
2018-04-07T11:20:39.106Z,49.90
2018-04-07T11:25:30.038Z,49.50
2018-04-07T11:30:20.970Z,49.80
2018-04-07T11:35:11.914Z,49.30
2018-04-07T11:40:02.833Z,49.20
2018-04-07T11:44:53.754Z,49.20
2018-04-07T11:49:44.678Z,48.60
2018-04-07T11:54:35.637Z,48.60
2018-04-07T11:59:26.541Z,47.60
2018-04-07T12:04:17.480Z,48.10
2018-04-07T12:09:08.381Z,47.70
2018-04-07T12:13:59.285Z,47.90
2018-04-07T12:18:50.218Z,48.30
2018-04-07T12:23:41.848Z,46.40
2018-04-07T12:28:32.754Z,46.30
2018-04-07T12:33:23.673Z,46.40
2018-04-07T12:38:15.310Z,47.00
2018-04-07T12:43:06.246Z,47.00
2018-04-07T12:47:57.897Z,45.50
2018-04-07T12:52:49.541Z,46.60
2018-04-07T12:57:41.193Z,46.00
2018-04-07T13:02:32.858Z,43.50
2018-04-07T13:07:23.769Z,43.50
2018-04-07T13:12:15.442Z,43.60
2018-04-07T13:17:06.374Z,43.60
2018-04-07T13:21:57.269Z,43.40
2018-04-07T13:26:48.178Z,42.20
2018-04-07T13:31:39.096Z,39.50
2018-04-07T13:36:30.028Z,38.80
2018-04-07T13:41:20.929Z,38.90
2018-04-07T13:46:12.180Z,40.10
2018-04-07T13:51:03.093Z,39.30
2018-04-07T13:55:53.997Z,39.50
2018-04-07T14:00:44.929Z,41.30
2018-04-07T14:05:35.834Z,42.90
2018-04-07T14:10:26.733Z,44.40
2018-04-07T14:15:18.382Z,41.80
2018-04-07T14:20:10.026Z,42.80
2018-04-07T14:25:01.669Z,42.50
2018-04-07T14:29:53.305Z,42.10
2018-04-07T14:34:44.201Z,42.00
2018-04-07T14:39:35.097Z,43.40
2018-04-07T14:44:26.066Z,43.40
2018-04-07T14:49:16.965Z,43.50
2018-04-07T14:54:07.870Z,43.50
2018-04-07T14:58:59.512Z,43.10
2018-04-07T15:03:51.200Z,44.40
2018-04-07T15:08:42.097Z,44.40
2018-04-07T15:13:33.037Z,44.40
2018-04-07T15:18:23.918Z,44.90
2018-04-07T15:23:15.648Z,45.20
2018-04-07T15:28:06.548Z,45.20
2018-04-07T15:32:57.462Z,44.60
2018-04-07T15:37:48.357Z,44.90
2018-04-07T15:42:40.009Z,44.40
2018-04-07T15:47:31.645Z,45.40
2018-04-07T15:52:23.294Z,46.10
2018-04-07T15:57:14.987Z,46.20
2018-04-07T16:02:05.930Z,46.10
2018-04-07T16:06:56.853Z,46.50
2018-04-07T16:11:47.761Z,46.00
2018-04-07T16:16:38.788Z,45.30
2018-04-07T16:21:29.728Z,46.50
2018-04-07T16:26:20.654Z,45.70
2018-04-07T16:31:11.557Z,45.60
2018-04-07T16:36:02.474Z,46.70
2018-04-07T16:40:53.381Z,47.10
2018-04-07T16:45:45.029Z,48.00
2018-04-07T16:50:36.795Z,49.00
2018-04-07T16:55:28.441Z,48.50
2018-04-07T17:00:19.340Z,48.50
2018-04-07T17:05:10.240Z,48.80
2018-04-07T17:10:01.153Z,49.00
2018-04-07T17:14:52.172Z,48.80
2018-04-07T17:19:43.065Z,49.00
2018-04-07T17:24:33.977Z,49.30
2018-04-07T17:29:24.885Z,49.70
2018-04-07T17:34:15.801Z,49.90
2018-04-07T17:39:07.010Z,49.80
2018-04-07T17:43:58.657Z,49.80
2018-04-07T17:48:50.337Z,50.20
2018-04-07T17:53:41.253Z,50.10
2018-04-07T17:58:32.165Z,50.10
2018-04-07T18:03:23.072Z,49.50
2018-04-07T18:08:13.977Z,49.80
2018-04-07T18:13:04.889Z,50.00
2018-04-07T18:17:55.792Z,50.20
2018-04-07T18:22:46.721Z,50.20
2018-04-07T18:27:37.625Z,50.30
2018-04-07T18:32:29.273Z,50.30
2018-04-07T18:37:20.960Z,50.30
2018-04-07T18:42:11.885Z,50.30
2018-04-07T18:47:02.797Z,50.40
2018-04-07T18:51:54.454Z,50.50
2018-04-07T18:56:45.479Z,50.50
2018-04-07T19:01:36.397Z,50.80
2018-04-07T19:06:27.309Z,51.00
2018-04-07T19:11:18.961Z,51.30
2018-04-07T19:16:09.869Z,51.20
2018-04-07T19:21:01.520Z,51.40
2018-04-07T19:25:53.181Z,51.40
2018-04-07T19:30:44.840Z,51.40
2018-04-07T19:35:35.760Z,51.40
2018-04-07T19:40:26.665Z,51.60
2018-04-07T19:45:18.309Z,51.20
2018-04-07T19:50:09.223Z,51.60
2018-04-07T19:55:00.130Z,51.70
2018-04-07T19:59:51.054Z,51.70
2018-04-07T20:04:41.950Z,51.60
2018-04-07T20:09:32.853Z,51.90
2018-04-07T20:14:23.749Z,51.90
2018-04-07T20:19:14.649Z,51.80
2018-04-07T20:24:06.360Z,52.10
2018-04-07T20:28:57.260Z,51.90
2018-04-07T20:33:48.174Z,52.20
2018-04-07T20:38:39.085Z,51.80
2018-04-07T20:43:30.001Z,52.10
2018-04-07T20:48:20.928Z,52.10
2018-04-07T20:53:11.830Z,52.20
2018-04-07T20:58:02.736Z,52.20
2018-04-07T21:02:53.641Z,52.10
2018-04-07T21:07:44.553Z,52.10
2018-04-07T21:12:36.204Z,52.00
2018-04-07T21:17:27.109Z,51.90
2018-04-07T21:22:18.750Z,52.40
2018-04-07T21:27:10.389Z,52.20
2018-04-07T21:32:02.039Z,52.20
2018-04-07T21:36:53.683Z,52.90
2018-04-07T21:41:44.581Z,52.20
2018-04-07T21:46:35.501Z,52.20
2018-04-07T21:51:26.413Z,52.10
2018-04-07T21:56:17.313Z,52.40
2018-04-07T22:01:08.226Z,52.40
2018-04-07T22:05:59.125Z,52.40
2018-04-07T22:10:50.038Z,52.60
2018-04-07T22:15:40.965Z,52.90
2018-04-07T22:20:31.868Z,52.70
2018-04-07T22:25:22.778Z,52.70
2018-04-07T22:30:13.731Z,52.80
2018-04-07T22:35:04.601Z,52.70
2018-04-07T22:39:55.500Z,52.60
2018-04-07T22:44:47.166Z,52.90
2018-04-07T22:49:38.073Z,52.80
2018-04-07T22:54:29.721Z,53.00
2018-04-07T22:59:21.365Z,53.10
2018-04-07T23:04:13.021Z,53.00
2018-04-07T23:09:04.656Z,53.10
2018-04-07T23:13:56.293Z,53.20
2018-04-07T23:18:47.945Z,53.30
2018-04-07T23:23:39.595Z,53.50
2018-04-07T23:28:30.501Z,53.50
2018-04-07T23:33:22.157Z,54.20
2018-04-07T23:38:13.806Z,53.50
2018-04-07T23:43:04.717Z,53.60
2018-04-07T23:47:56.357Z,53.70
2018-04-07T23:52:47.993Z,53.60
2018-04-07T23:57:38.891Z,53.50
